createdAt,value
2017-06-21T18:34:53.270Z,100237.14
2017-06-21T18:37:21.683Z,100239.20
2017-06-21T18:39:49.155Z,100244.08
2017-06-21T18:42:17.683Z,100238.48
2017-06-21T18:46:03.967Z,100235.97
2017-06-21T18:48:33.690Z,100244.57
2017-06-21T18:51:05.166Z,100239.97
2017-06-21T18:53:33.444Z,100236.72
2017-06-21T18:56:00.879Z,100239.34
2017-06-21T18:58:28.303Z,100241.06
2017-06-21T19:00:55.895Z,100234.66
2017-06-21T19:03:23.920Z,100236.32
2017-06-21T19:05:51.369Z,100238.67
2017-06-21T19:08:18.800Z,100236.33
2017-06-21T19:10:46.225Z,100237.11
2017-06-21T19:13:13.652Z,100233.89
2017-06-21T19:15:41.098Z,100235.77
2017-06-21T19:18:08.522Z,100237.48
2017-06-21T19:20:35.953Z,100231.53
2017-06-21T19:23:03.752Z,100225.79
2017-06-21T19:25:31.222Z,100226.61
2017-06-21T19:27:58.638Z,100226.59
2017-06-21T19:30:26.088Z,100231.51
2017-06-21T19:32:53.511Z,100230.97
2017-06-21T19:35:20.932Z,100230.31
2017-06-21T19:37:48.793Z,100230.48
2017-06-21T19:40:16.225Z,100230.39
2017-06-21T19:42:43.650Z,100237.88
2017-06-21T19:45:11.118Z,100241.57
2017-06-21T19:47:53.362Z,100238.47
2017-06-21T19:50:20.903Z,100236.98
2017-06-21T19:52:49.302Z,100240.77
2017-06-21T19:55:19.224Z,100238.09
2017-06-21T19:57:46.811Z,100245.22
2017-06-21T20:00:16.570Z,100244.47
2017-06-21T20:02:44.231Z,100240.96
2017-06-21T20:05:12.332Z,100242.61
2017-06-21T20:07:40.455Z,100239.13
2017-06-21T20:10:11.036Z,100243.63
2017-06-21T20:12:38.999Z,100244.38
2017-06-21T20:15:06.419Z,100237.53
2017-06-21T20:17:33.856Z,100242.90
2017-06-21T20:20:01.339Z,100250.14
2017-06-21T20:22:28.775Z,100253.63
2017-06-21T20:24:56.205Z,100258.64
2017-06-21T20:27:23.649Z,100258.75
2017-06-21T20:29:51.071Z,100264.51
2017-06-21T20:32:20.908Z,100261.80
2017-06-21T20:34:48.442Z,100261.47
2017-06-21T20:37:15.862Z,100268.02
2017-06-21T20:39:43.481Z,100259.65
2017-06-21T20:42:10.929Z,100255.84
2017-06-21T20:44:38.614Z,100256.20
2017-06-21T20:47:06.031Z,100254.73
2017-06-21T20:49:35.431Z,100257.89
2017-06-21T20:52:02.850Z,100261.32
2017-06-21T20:54:30.282Z,100264.14
2017-06-21T20:56:59.584Z,100267.45
2017-06-21T20:59:27.008Z,100259.22
2017-06-21T21:01:54.627Z,100263.72
2017-06-21T21:04:22.354Z,100258.41
2017-06-21T21:06:49.800Z,100258.50
2017-06-21T21:09:18.116Z,100255.44
2017-06-21T21:11:45.683Z,100257.72
2017-06-21T21:14:16.575Z,100253.54
2017-06-21T21:16:44.041Z,100255.70
2017-06-21T21:19:11.818Z,100248.13
2017-06-21T21:21:39.262Z,100244.69
2017-06-21T21:24:06.738Z,100259.54
2017-06-21T21:26:34.514Z,100254.74
2017-06-21T21:29:01.937Z,100254.41
2017-06-21T21:31:29.357Z,100257.02
2017-06-21T21:33:56.958Z,100254.16
2017-06-21T21:36:24.592Z,100247.92
2017-06-21T21:38:52.826Z,100255.11
2017-06-21T21:41:20.415Z,100252.17
2017-06-21T21:43:47.834Z,100254.66
2017-06-21T21:46:15.279Z,100244.47
2017-06-21T21:48:43.138Z,100248.81
2017-06-21T21:51:12.982Z,100243.11
2017-06-21T21:53:40.654Z,100240.09
2017-06-21T21:56:08.227Z,100244.28
2017-06-21T21:58:35.649Z,100244.41
2017-06-21T22:01:03.078Z,100242.47
2017-06-21T22:03:33.431Z,100243.08
2017-06-21T22:06:01.610Z,100248.40
2017-06-21T22:08:30.202Z,100243.48
2017-06-21T22:11:00.674Z,100242.53
2017-06-21T22:13:28.097Z,100245.57
2017-06-21T22:15:55.518Z,100251.91
2017-06-21T22:18:37.991Z,100253.41
2017-06-21T22:21:05.651Z,100259.03
2017-06-21T22:23:33.134Z,100262.72
2017-06-21T22:26:00.683Z,100259.73
2017-06-21T22:28:34.344Z,100257.75
2017-06-21T22:31:03.524Z,100258.64
2017-06-21T22:33:31.418Z,100255.57
2017-06-21T22:35:58.871Z,100255.61
2017-06-21T22:38:26.493Z,100251.71
2017-06-21T22:40:55.239Z,100247.03
2017-06-21T22:43:22.658Z,100250.48
2017-06-21T22:45:50.295Z,100246.39
2017-06-21T22:48:18.848Z,100249.51
2017-06-21T22:50:46.735Z,100245.36
2017-06-21T22:53:14.486Z,100245.20
2017-06-21T22:55:41.930Z,100245.11
2017-06-21T22:58:09.363Z,100245.67
2017-06-21T23:00:37.276Z,100251.83
2017-06-21T23:03:05.155Z,100249.92
2017-06-21T23:05:32.587Z,100250.59
2017-06-21T23:08:02.747Z,100246.47
2017-06-21T23:10:30.887Z,100243.52
2017-06-21T23:12:58.630Z,100232.09
2017-06-21T23:15:27.319Z,100236.48
2017-06-21T23:17:54.742Z,100234.07
2017-06-21T23:20:22.158Z,100237.30
2017-06-21T23:22:50.178Z,100235.86
2017-06-21T23:25:17.923Z,100236.20
2017-06-21T23:27:45.341Z,100227.70
2017-06-21T23:30:12.943Z,100227.50
2017-06-21T23:32:40.388Z,100223.95
2017-06-21T23:35:07.823Z,100227.95
2017-06-21T23:37:35.976Z,100228.19
2017-06-21T23:40:03.510Z,100228.88
2017-06-21T23:42:30.934Z,100224.55
2017-06-21T23:44:58.912Z,100223.03
2017-06-21T23:47:26.349Z,100223.73
2017-06-21T23:49:53.768Z,100221.83
2017-06-21T23:52:21.338Z,100221.83
2017-06-21T23:54:48.796Z,100217.24
2017-06-21T23:57:16.215Z,100221.92
2017-06-21T23:59:46.235Z,100223.80
